sensor_id;sensor_type;location;lat;lon;timestamp;pressure;altitude;pressure_sealevel;temperature;humidity
84026;BME280;74110;45.660;25.582;2024-02-26T00:00:21;94768.77;;;6.74;73.61
84026;BME280;74110;45.660;25.582;2024-02-26T00:03:10;94769.05;;;6.63;74.40
84026;BME280;74110;45.660;25.582;2024-02-26T00:05:38;94770.10;;;6.64;73.06
84026;BME280;74110;45.660;25.582;2024-02-26T00:08:07;94768.90;;;6.72;72.29
84026;BME280;74110;45.660;25.582;2024-02-26T00:10:35;94767.52;;;6.81;72.59
84026;BME280;74110;45.660;25.582;2024-02-26T00:13:03;94765.98;;;6.85;72.76
84026;BME280;74110;45.660;25.582;2024-02-26T00:15:31;94759.65;;;6.85;72.54
84026;BME280;74110;45.660;25.582;2024-02-26T00:17:59;94753.17;;;6.84;72.48
84026;BME280;74110;45.660;25.582;2024-02-26T00:20:28;94747.27;;;6.87;72.08
84026;BME280;74110;45.660;25.582;2024-02-26T00:22:57;94745.31;;;6.91;71.55
84026;BME280;74110;45.660;25.582;2024-02-26T00:25:25;94748.30;;;6.93;71.35
84026;BME280;74110;45.660;25.582;2024-02-26T00:27:53;94747.77;;;6.93;72.22
84026;BME280;74110;45.660;25.582;2024-02-26T00:30:21;94740.23;;;6.92;73.19
84026;BME280;74110;45.660;25.582;2024-02-26T00:32:50;94747.64;;;6.87;74.30
84026;BME280;74110;45.660;25.582;2024-02-26T00:35:18;94748.02;;;6.81;74.73
84026;BME280;74110;45.660;25.582;2024-02-26T00:37:48;94745.71;;;6.76;74.59
84026;BME280;74110;45.660;25.582;2024-02-26T00:40:15;94743.10;;;6.78;73.25
84026;BME280;74110;45.660;25.582;2024-02-26T00:42:43;94741.45;;;6.83;72.28
84026;BME280;74110;45.660;25.582;2024-02-26T00:45:13;94736.64;;;6.87;72.12
84026;BME280;74110;45.660;25.582;2024-02-26T00:47:42;94730.59;;;6.89;73.04
84026;BME280;74110;45.660;25.582;2024-02-26T00:50:12;94730.27;;;6.89;74.39
84026;BME280;74110;45.660;25.582;2024-02-26T00:52:39;94731.48;;;6.87;75.54
84026;BME280;74110;45.660;25.582;2024-02-26T00:55:07;94727.95;;;6.85;75.42
84026;BME280;74110;45.660;25.582;2024-02-26T00:57:36;94728.90;;;6.85;75.91
84026;BME280;74110;45.660;25.582;2024-02-26T01:00:03;94730.00;;;6.82;75.98
84026;BME280;74110;45.660;25.582;2024-02-26T01:02:31;94726.41;;;6.82;75.71
84026;BME280;74110;45.660;25.582;2024-02-26T01:04:58;94721.23;;;6.87;75.76
84026;BME280;74110;45.660;25.582;2024-02-26T01:07:26;94727.04;;;6.87;76.33
84026;BME280;74110;45.660;25.582;2024-02-26T01:09:55;94731.19;;;6.88;76.03
84026;BME280;74110;45.660;25.582;2024-02-26T01:12:23;94728.16;;;6.89;75.70
84026;BME280;74110;45.660;25.582;2024-02-26T01:14:51;94725.13;;;6.88;76.26
84026;BME280;74110;45.660;25.582;2024-02-26T01:17:19;94722.19;;;6.83;76.54
84026;BME280;74110;45.660;25.582;2024-02-26T01:19:47;94720.34;;;6.81;76.85
84026;BME280;74110;45.660;25.582;2024-02-26T01:22:14;94724.19;;;6.82;76.63
84026;BME280;74110;45.660;25.582;2024-02-26T01:24:42;94724.51;;;6.82;76.79
84026;BME280;74110;45.660;25.582;2024-02-26T01:27:09;94725.12;;;6.83;76.54
84026;BME280;74110;45.660;25.582;2024-02-26T01:29:37;94727.71;;;6.84;76.40
84026;BME280;74110;45.660;25.582;2024-02-26T01:32:07;94720.34;;;6.82;76.70
84026;BME280;74110;45.660;25.582;2024-02-26T01:34:35;94718.67;;;6.83;76.12
84026;BME280;74110;45.660;25.582;2024-02-26T01:37:04;94717.36;;;6.87;76.39
84026;BME280;74110;45.660;25.582;2024-02-26T01:39:32;94719.46;;;6.88;76.59
84026;BME280;74110;45.660;25.582;2024-02-26T01:42:00;94717.85;;;6.86;76.65
84026;BME280;74110;45.660;25.582;2024-02-26T01:44:28;94715.94;;;6.82;76.69
84026;BME280;74110;45.660;25.582;2024-02-26T01:46:56;94719.43;;;6.81;76.47
84026;BME280;74110;45.660;25.582;2024-02-26T01:49:26;94727.84;;;6.81;76.04
84026;BME280;74110;45.660;25.582;2024-02-26T01:51:54;94731.11;;;6.83;75.60
84026;BME280;74110;45.660;25.582;2024-02-26T01:54:22;94729.56;;;6.83;75.99
84026;BME280;74110;45.660;25.582;2024-02-26T01:56:51;94734.20;;;6.84;75.99
84026;BME280;74110;45.660;25.582;2024-02-26T01:59:20;94734.29;;;6.82;76.86
84026;BME280;74110;45.660;25.582;2024-02-26T02:01:52;94733.90;;;6.83;76.81
84026;BME280;74110;45.660;25.582;2024-02-26T02:04:22;94741.61;;;6.82;76.39
84026;BME280;74110;45.660;25.582;2024-02-26T02:06:52;94742.79;;;6.78;76.84
84026;BME280;74110;45.660;25.582;2024-02-26T02:09:20;94739.87;;;6.74;76.35
84026;BME280;74110;45.660;25.582;2024-02-26T02:11:49;94739.89;;;6.77;75.62
84026;BME280;74110;45.660;25.582;2024-02-26T02:14:17;94736.52;;;6.84;75.20
84026;BME280;74110;45.660;25.582;2024-02-26T02:16:44;94732.13;;;6.90;75.05
84026;BME280;74110;45.660;25.582;2024-02-26T02:19:13;94731.27;;;6.91;74.91
84026;BME280;74110;45.660;25.582;2024-02-26T02:21:41;94724.84;;;6.92;74.49
84026;BME280;74110;45.660;25.582;2024-02-26T02:24:08;94731.59;;;6.89;74.02
84026;BME280;74110;45.660;25.582;2024-02-26T02:26:36;94731.02;;;6.88;73.60
84026;BME280;74110;45.660;25.582;2024-02-26T02:29:05;94727.40;;;6.87;73.47
84026;BME280;74110;45.660;25.582;2024-02-26T02:31:34;94727.62;;;6.81;73.04
84026;BME280;74110;45.660;25.582;2024-02-26T02:34:02;94724.03;;;6.77;73.01
84026;BME280;74110;45.660;25.582;2024-02-26T02:36:31;94723.24;;;6.74;73.42
84026;BME280;74110;45.660;25.582;2024-02-26T02:39:00;94723.34;;;6.74;73.83
84026;BME280;74110;45.660;25.582;2024-02-26T02:41:27;94724.95;;;6.73;73.87
84026;BME280;74110;45.660;25.582;2024-02-26T02:43:57;94730.90;;;6.70;74.02
84026;BME280;74110;45.660;25.582;2024-02-26T02:46:25;94733.84;;;6.59;74.38
84026;BME280;74110;45.660;25.582;2024-02-26T02:48:53;94734.11;;;6.49;73.90
84026;BME280;74110;45.660;25.582;2024-02-26T02:51:20;94735.13;;;6.44;73.40
84026;BME280;74110;45.660;25.582;2024-02-26T02:53:49;94739.89;;;6.42;73.69
84026;BME280;74110;45.660;25.582;2024-02-26T02:56:17;94739.33;;;6.37;74.57
84026;BME280;74110;45.660;25.582;2024-02-26T02:58:45;94744.75;;;6.29;75.08
84026;BME280;74110;45.660;25.582;2024-02-26T03:01:13;94744.81;;;6.27;74.98
84026;BME280;74110;45.660;25.582;2024-02-26T03:03:41;94743.77;;;6.26;75.25
84026;BME280;74110;45.660;25.582;2024-02-26T03:06:09;94746.34;;;6.22;75.15
84026;BME280;74110;45.660;25.582;2024-02-26T03:08:36;94750.72;;;6.23;74.29
84026;BME280;74110;45.660;25.582;2024-02-26T03:11:07;94745.91;;;6.24;74.26
84026;BME280;74110;45.660;25.582;2024-02-26T03:13:35;94751.58;;;6.20;74.02
84026;BME280;74110;45.660;25.582;2024-02-26T03:16:06;94757.84;;;6.19;73.99
84026;BME280;74110;45.660;25.582;2024-02-26T03:18:35;94754.21;;;6.18;73.93
84026;BME280;74110;45.660;25.582;2024-02-26T03:21:03;94749.41;;;6.17;73.91
84026;BME280;74110;45.660;25.582;2024-02-26T03:23:32;94745.21;;;6.20;74.44
84026;BME280;74110;45.660;25.582;2024-02-26T03:26:04;94742.82;;;6.17;73.92
84026;BME280;74110;45.660;25.582;2024-02-26T03:28:32;94748.67;;;6.12;73.74
84026;BME280;74110;45.660;25.582;2024-02-26T03:31:01;94747.34;;;5.98;73.93
84026;BME280;74110;45.660;25.582;2024-02-26T03:33:32;94748.04;;;5.90;73.81
84026;BME280;74110;45.660;25.582;2024-02-26T03:35:59;94746.52;;;5.84;74.24
84026;BME280;74110;45.660;25.582;2024-02-26T03:38:29;94745.27;;;5.84;74.38
84026;BME280;74110;45.660;25.582;2024-02-26T03:40:58;94744.95;;;5.88;74.37
84026;BME280;74110;45.660;25.582;2024-02-26T03:43:25;94744.09;;;5.89;73.99
84026;BME280;74110;45.660;25.582;2024-02-26T03:45:53;94742.30;;;5.82;74.78
84026;BME280;74110;45.660;25.582;2024-02-26T03:48:21;94745.83;;;5.74;75.19
84026;BME280;74110;45.660;25.582;2024-02-26T03:50:49;94742.44;;;5.72;74.98
84026;BME280;74110;45.660;25.582;2024-02-26T03:53:17;94745.02;;;5.66;74.75
84026;BME280;74110;45.660;25.582;2024-02-26T03:55:46;94752.34;;;5.60;75.50
84026;BME280;74110;45.660;25.582;2024-02-26T03:58:14;94754.55;;;5.60;75.25
84026;BME280;74110;45.660;25.582;2024-02-26T04:00:43;94752.41;;;5.60;76.26
84026;BME280;74110;45.660;25.582;2024-02-26T04:03:11;94753.88;;;5.59;76.08
84026;BME280;74110;45.660;25.582;2024-02-26T04:05:39;94756.62;;;5.52;76.56
84026;BME280;74110;45.660;25.582;2024-02-26T04:08:08;94753.35;;;5.53;76.31
84026;BME280;74110;45.660;25.582;2024-02-26T04:10:36;94753.85;;;5.55;76.71
84026;BME280;74110;45.660;25.582;2024-02-26T04:13:07;94749.33;;;5.55;76.81
84026;BME280;74110;45.660;25.582;2024-02-26T04:15:34;94747.48;;;5.55;76.34
84026;BME280;74110;45.660;25.582;2024-02-26T04:18:02;94746.81;;;5.45;76.60
84026;BME280;74110;45.660;25.582;2024-02-26T04:20:31;94750.29;;;5.41;76.64
84026;BME280;74110;45.660;25.582;2024-02-26T04:23:03;94747.93;;;5.44;76.47
84026;BME280;74110;45.660;25.582;2024-02-26T04:25:30;94746.23;;;5.53;76.20
84026;BME280;74110;45.660;25.582;2024-02-26T04:27:58;94744.35;;;5.63;75.83
84026;BME280;74110;45.660;25.582;2024-02-26T04:30:26;94748.27;;;5.67;75.57
84026;BME280;74110;45.660;25.582;2024-02-26T04:32:54;94741.77;;;5.68;75.15
84026;BME280;74110;45.660;25.582;2024-02-26T04:35:22;94744.95;;;5.72;74.72
84026;BME280;74110;45.660;25.582;2024-02-26T04:37:50;94743.83;;;5.75;74.25
84026;BME280;74110;45.660;25.582;2024-02-26T04:40:17;94741.00;;;5.72;74.83
84026;BME280;74110;45.660;25.582;2024-02-26T04:42:46;94739.36;;;5.73;74.66
84026;BME280;74110;45.660;25.582;2024-02-26T04:45:14;94735.20;;;5.80;74.83
84026;BME280;74110;45.660;25.582;2024-02-26T04:47:42;94736.84;;;5.79;74.95
84026;BME280;74110;45.660;25.582;2024-02-26T04:50:14;94735.67;;;5.78;74.22
84026;BME280;74110;45.660;25.582;2024-02-26T04:52:45;94737.35;;;5.80;73.88
84026;BME280;74110;45.660;25.582;2024-02-26T04:55:13;94742.47;;;5.82;73.69
84026;BME280;74110;45.660;25.582;2024-02-26T04:57:42;94743.42;;;5.81;74.14
84026;BME280;74110;45.660;25.582;2024-02-26T05:00:11;94752.00;;;5.75;74.36
84026;BME280;74110;45.660;25.582;2024-02-26T05:02:39;94752.78;;;5.78;74.72
84026;BME280;74110;45.660;25.582;2024-02-26T05:05:07;94746.17;;;5.79;74.73
84026;BME280;74110;45.660;25.582;2024-02-26T05:07:40;94745.52;;;5.74;75.02
84026;BME280;74110;45.660;25.582;2024-02-26T05:10:09;94752.09;;;5.70;75.02
84026;BME280;74110;45.660;25.582;2024-02-26T05:12:39;94748.30;;;5.64;75.16
84026;BME280;74110;45.660;25.582;2024-02-26T05:15:09;94750.34;;;5.65;74.55
84026;BME280;74110;45.660;25.582;2024-02-26T05:17:38;94747.15;;;5.63;74.35
84026;BME280;74110;45.660;25.582;2024-02-26T05:20:07;94744.46;;;5.57;74.22
84026;BME280;74110;45.660;25.582;2024-02-26T05:22:35;94744.95;;;5.60;74.83
84026;BME280;74110;45.660;25.582;2024-02-26T05:25:03;94749.69;;;5.62;75.10
84026;BME280;74110;45.660;25.582;2024-02-26T05:27:31;94752.73;;;5.64;74.83
84026;BME280;74110;45.660;25.582;2024-02-26T05:29:59;94748.83;;;5.69;74.63
84026;BME280;74110;45.660;25.582;2024-02-26T05:32:27;94755.37;;;5.69;75.09
84026;BME280;74110;45.660;25.582;2024-02-26T05:34:56;94753.33;;;5.62;75.57
84026;BME280;74110;45.660;25.582;2024-02-26T05:37:23;94755.61;;;5.59;76.07
84026;BME280;74110;45.660;25.582;2024-02-26T05:39:52;94758.22;;;5.57;75.64
84026;BME280;74110;45.660;25.582;2024-02-26T05:42:20;94759.56;;;5.60;75.60
84026;BME280;74110;45.660;25.582;2024-02-26T05:44:49;94761.65;;;5.70;75.38
84026;BME280;74110;45.660;25.582;2024-02-26T05:47:17;94761.73;;;5.81;75.24
84026;BME280;74110;45.660;25.582;2024-02-26T05:49:45;94768.77;;;5.90;74.90
84026;BME280;74110;45.660;25.582;2024-02-26T05:52:12;94763.67;;;5.93;75.08
84026;BME280;74110;45.660;25.582;2024-02-26T05:54:40;94770.73;;;6.02;74.43
84026;BME280;74110;45.660;25.582;2024-02-26T05:57:08;94769.55;;;6.03;74.86
84026;BME280;74110;45.660;25.582;2024-02-26T05:59:36;94772.25;;;6.04;75.18
84026;BME280;74110;45.660;25.582;2024-02-26T06:02:05;94768.73;;;6.07;74.90
84026;BME280;74110;45.660;25.582;2024-02-26T06:04:32;94769.91;;;6.16;74.53
84026;BME280;74110;45.660;25.582;2024-02-26T06:07:00;94779.69;;;6.29;74.86
84026;BME280;74110;45.660;25.582;2024-02-26T06:09:28;94784.45;;;6.33;75.12
84026;BME280;74110;45.660;25.582;2024-02-26T06:11:56;94785.52;;;6.37;74.69
84026;BME280;74110;45.660;25.582;2024-02-26T06:14:24;94780.71;;;6.47;74.38
84026;BME280;74110;45.660;25.582;2024-02-26T06:16:53;94783.58;;;6.55;74.34
84026;BME280;74110;45.660;25.582;2024-02-26T06:19:20;94782.04;;;6.65;73.96
84026;BME280;74110;45.660;25.582;2024-02-26T06:21:48;94784.52;;;6.75;73.87
84026;BME280;74110;45.660;25.582;2024-02-26T06:24:16;94792.56;;;6.82;73.96
84026;BME280;74110;45.660;25.582;2024-02-26T06:26:45;94788.27;;;6.88;74.27
84026;BME280;74110;45.660;25.582;2024-02-26T06:29:14;94787.00;;;6.96;74.09
84026;BME280;74110;45.660;25.582;2024-02-26T06:31:42;94791.20;;;6.93;74.24
84026;BME280;74110;45.660;25.582;2024-02-26T06:34:10;94792.62;;;6.94;74.23
84026;BME280;74110;45.660;25.582;2024-02-26T06:36:41;94785.77;;;6.97;74.29
84026;BME280;74110;45.660;25.582;2024-02-26T06:39:08;94788.09;;;7.01;74.16
84026;BME280;74110;45.660;25.582;2024-02-26T06:41:40;94790.39;;;6.99;74.90
84026;BME280;74110;45.660;25.582;2024-02-26T06:44:07;94796.11;;;6.94;75.33
84026;BME280;74110;45.660;25.582;2024-02-26T06:46:35;94794.43;;;6.98;75.21
84026;BME280;74110;45.660;25.582;2024-02-26T06:49:05;94797.73;;;7.03;75.05
84026;BME280;74110;45.660;25.582;2024-02-26T06:51:34;94795.77;;;7.16;74.46
84026;BME280;74110;45.660;25.582;2024-02-26T06:54:02;94793.41;;;7.12;74.83
84026;BME280;74110;45.660;25.582;2024-02-26T06:56:29;94791.46;;;7.07;75.46
84026;BME280;74110;45.660;25.582;2024-02-26T06:58:57;94791.27;;;7.08;75.64
84026;BME280;74110;45.660;25.582;2024-02-26T07:01:25;94797.51;;;7.13;75.58
84026;BME280;74110;45.660;25.582;2024-02-26T07:03:53;94796.68;;;7.19;75.40
84026;BME280;74110;45.660;25.582;2024-02-26T07:06:22;94793.33;;;7.36;74.77
84026;BME280;74110;45.660;25.582;2024-02-26T07:08:50;94796.83;;;7.53;74.21
84026;BME280;74110;45.660;25.582;2024-02-26T07:11:19;94801.58;;;7.68;73.61
84026;BME280;74110;45.660;25.582;2024-02-26T07:13:48;94798.27;;;7.80;73.50
84026;BME280;74110;45.660;25.582;2024-02-26T07:16:17;94794.20;;;7.89;72.98
84026;BME280;74110;45.660;25.582;2024-02-26T07:18:45;94797.09;;;7.97;73.18
84026;BME280;74110;45.660;25.582;2024-02-26T07:21:14;94803.81;;;8.10;72.71
84026;BME280;74110;45.660;25.582;2024-02-26T07:23:41;94809.08;;;8.18;71.91
84026;BME280;74110;45.660;25.582;2024-02-26T07:26:10;94802.05;;;8.25;72.13
84026;BME280;74110;45.660;25.582;2024-02-26T07:28:40;94807.65;;;8.40;72.03
84026;BME280;74110;45.660;25.582;2024-02-26T07:31:07;94813.98;;;8.57;71.57
84026;BME280;74110;45.660;25.582;2024-02-26T07:33:36;94811.44;;;8.73;70.83
84026;BME280;74110;45.660;25.582;2024-02-26T07:36:04;94810.32;;;8.90;70.20
84026;BME280;74110;45.660;25.582;2024-02-26T07:38:32;94813.74;;;9.01;69.53
84026;BME280;74110;45.660;25.582;2024-02-26T07:41:11;94812.59;;;9.04;69.45
84026;BME280;74110;45.660;25.582;2024-02-26T07:43:39;94814.20;;;9.16;69.86
84026;BME280;74110;45.660;25.582;2024-02-26T07:46:11;94818.21;;;9.34;69.77
84026;BME280;74110;45.660;25.582;2024-02-26T07:48:40;94816.29;;;9.49;69.21
84026;BME280;74110;45.660;25.582;2024-02-26T07:51:11;94809.76;;;9.63;68.59
84026;BME280;74110;45.660;25.582;2024-02-26T07:53:39;94811.95;;;9.74;67.60
84026;BME280;74110;45.660;25.582;2024-02-26T07:56:07;94814.90;;;9.80;66.81
84026;BME280;74110;45.660;25.582;2024-02-26T07:58:36;94819.77;;;9.83;66.19
84026;BME280;74110;45.660;25.582;2024-02-26T08:01:04;94816.89;;;9.98;67.38
84026;BME280;74110;45.660;25.582;2024-02-26T08:03:34;94810.79;;;10.16;66.98
84026;BME280;74110;45.660;25.582;2024-02-26T08:06:02;94811.03;;;10.31;66.38
84026;BME280;74110;45.660;25.582;2024-02-26T08:08:31;94813.23;;;10.34;65.45
84026;BME280;74110;45.660;25.582;2024-02-26T08:10:59;94815.80;;;10.44;65.56
84026;BME280;74110;45.660;25.582;2024-02-26T08:13:27;94809.08;;;10.59;65.73
84026;BME280;74110;45.660;25.582;2024-02-26T08:15:55;94813.98;;;10.69;65.28
84026;BME280;74110;45.660;25.582;2024-02-26T08:18:22;94814.06;;;10.68;64.20
84026;BME280;74110;45.660;25.582;2024-02-26T08:20:50;94811.42;;;10.71;65.13
84026;BME280;74110;45.660;25.582;2024-02-26T08:23:18;94808.21;;;10.81;64.45
84026;BME280;74110;45.660;25.582;2024-02-26T08:25:46;94799.91;;;10.95;64.87
84026;BME280;74110;45.660;25.582;2024-02-26T08:28:15;94800.44;;;11.12;63.87
84026;BME280;74110;45.660;25.582;2024-02-26T08:30:45;94800.91;;;11.34;62.96
84026;BME280;74110;45.660;25.582;2024-02-26T08:33:13;94795.35;;;11.63;62.80
84026;BME280;74110;45.660;25.582;2024-02-26T08:35:42;94797.27;;;11.87;60.97
84026;BME280;74110;45.660;25.582;2024-02-26T08:38:10;94805.41;;;12.20;61.08
84026;BME280;74110;45.660;25.582;2024-02-26T08:40:38;94804.86;;;12.51;59.76
84026;BME280;74110;45.660;25.582;2024-02-26T08:43:07;94804.56;;;12.77;59.74
84026;BME280;74110;45.660;25.582;2024-02-26T08:45:37;94809.89;;;12.75;57.77
84026;BME280;74110;45.660;25.582;2024-02-26T08:48:05;94805.98;;;12.89;58.49
84026;BME280;74110;45.660;25.582;2024-02-26T08:50:33;94806.36;;;13.17;58.79
84026;BME280;74110;45.660;25.582;2024-02-26T08:53:01;94801.98;;;13.50;57.49
84026;BME280;74110;45.660;25.582;2024-02-26T08:55:33;94806.07;;;13.79;57.86
84026;BME280;74110;45.660;25.582;2024-02-26T08:58:01;94797.88;;;13.86;56.55
84026;BME280;74110;45.660;25.582;2024-02-26T09:00:28;94800.75;;;13.92;56.69
84026;BME280;74110;45.660;25.582;2024-02-26T09:02:56;94803.49;;;14.06;56.91
84026;BME280;74110;45.660;25.582;2024-02-26T09:05:24;94800.95;;;14.06;55.15
84026;BME280;74110;45.660;25.582;2024-02-26T09:07:52;94797.43;;;13.99;54.74
84026;BME280;74110;45.660;25.582;2024-02-26T09:10:20;94791.05;;;14.13;56.63
84026;BME280;74110;45.660;25.582;2024-02-26T09:12:47;94783.75;;;14.20;55.70
84026;BME280;74110;45.660;25.582;2024-02-26T09:15:15;94779.55;;;14.28;55.92
84026;BME280;74110;45.660;25.582;2024-02-26T09:17:43;94775.33;;;14.36;55.96
84026;BME280;74110;45.660;25.582;2024-02-26T09:20:12;94780.09;;;14.30;53.96
84026;BME280;74110;45.660;25.582;2024-02-26T09:22:42;94778.95;;;14.31;54.95
84026;BME280;74110;45.660;25.582;2024-02-26T09:25:09;94782.96;;;14.51;55.72
84026;BME280;74110;45.660;25.582;2024-02-26T09:27:37;94787.54;;;14.81;54.51
84026;BME280;74110;45.660;25.582;2024-02-26T09:30:10;94787.97;;;15.03;54.78
84026;BME280;74110;45.660;25.582;2024-02-26T09:32:38;94780.20;;;15.09;53.22
84026;BME280;74110;45.660;25.582;2024-02-26T09:35:08;94771.59;;;15.31;53.77
84026;BME280;74110;45.660;25.582;2024-02-26T09:37:37;94775.48;;;15.50;53.18
84026;BME280;74110;45.660;25.582;2024-02-26T09:40:05;94773.73;;;15.66;53.11
84026;BME280;74110;45.660;25.582;2024-02-26T09:42:45;94771.45;;;15.72;52.27
84026;BME280;74110;45.660;25.582;2024-02-26T09:45:21;94774.89;;;15.69;52.55
84026;BME280;74110;45.660;25.582;2024-02-26T09:47:49;94772.27;;;15.71;53.19
84026;BME280;74110;45.660;25.582;2024-02-26T09:50:18;94770.21;;;15.76;52.20
84026;BME280;74110;45.660;25.582;2024-02-26T09:52:52;94768.20;;;15.83;51.72
84026;BME280;74110;45.660;25.582;2024-02-26T09:55:20;94769.34;;;15.75;51.86
84026;BME280;74110;45.660;25.582;2024-02-26T09:57:48;94770.63;;;15.64;52.19
84026;BME280;74110;45.660;25.582;2024-02-26T10:00:21;94765.63;;;15.59;52.99
84026;BME280;74110;45.660;25.582;2024-02-26T10:02:48;94771.39;;;15.35;52.40
84026;BME280;74110;45.660;25.582;2024-02-26T10:05:18;94764.77;;;14.96;52.85
84026;BME280;74110;45.660;25.582;2024-02-26T10:07:48;94763.05;;;14.86;54.08
84026;BME280;74110;45.660;25.582;2024-02-26T10:10:16;94761.48;;;14.95;54.09
84026;BME280;74110;45.660;25.582;2024-02-26T10:12:45;94759.27;;;15.00;53.95
84026;BME280;74110;45.660;25.582;2024-02-26T10:15:12;94756.73;;;15.12;54.09
84026;BME280;74110;45.660;25.582;2024-02-26T10:17:41;94756.00;;;15.32;53.79
84026;BME280;74110;45.660;25.582;2024-02-26T10:20:16;94751.30;;;15.48;53.53
84026;BME280;74110;45.660;25.582;2024-02-26T10:22:52;94742.59;;;15.64;52.73
84026;BME280;74110;45.660;25.582;2024-02-26T10:25:20;94739.20;;;15.79;52.22
84026;BME280;74110;45.660;25.582;2024-02-26T10:27:47;94734.98;;;15.84;51.71
84026;BME280;74110;45.660;25.582;2024-02-26T10:30:21;94734.59;;;15.94;52.47
84026;BME280;74110;45.660;25.582;2024-02-26T10:32:52;94732.27;;;16.12;51.70
84026;BME280;74110;45.660;25.582;2024-02-26T10:35:22;94728.10;;;16.29;51.60
84026;BME280;74110;45.660;25.582;2024-02-26T10:37:50;94723.67;;;16.46;51.50
84026;BME280;74110;45.660;25.582;2024-02-26T10:40:17;94724.16;;;16.38;49.77
84026;BME280;74110;45.660;25.582;2024-02-26T10:42:46;94721.17;;;15.89;50.78
84026;BME280;74110;45.660;25.582;2024-02-26T10:45:13;94719.90;;;15.95;50.74
84026;BME280;74110;45.660;25.582;2024-02-26T10:47:41;94719.78;;;15.72;51.09
84026;BME280;74110;45.660;25.582;2024-02-26T10:50:13;94721.22;;;15.59;51.70
84026;BME280;74110;45.660;25.582;2024-02-26T10:52:42;94720.92;;;15.41;52.49
84026;BME280;74110;45.660;25.582;2024-02-26T10:55:13;94719.50;;;15.27;52.89
84026;BME280;74110;45.660;25.582;2024-02-26T10:57:43;94714.89;;;15.38;52.97
84026;BME280;74110;45.660;25.582;2024-02-26T11:00:15;94707.84;;;15.64;52.91
84026;BME280;74110;45.660;25.582;2024-02-26T11:02:45;94711.66;;;15.74;52.24
84026;BME280;74110;45.660;25.582;2024-02-26T11:05:13;94706.05;;;15.45;52.19
84026;BME280;74110;45.660;25.582;2024-02-26T11:07:41;94703.73;;;15.51;52.31
84026;BME280;74110;45.660;25.582;2024-02-26T11:10:11;94712.36;;;15.62;52.55
84026;BME280;74110;45.660;25.582;2024-02-26T11:12:39;94709.75;;;15.53;52.96
84026;BME280;74110;45.660;25.582;2024-02-26T11:15:09;94715.27;;;15.43;53.29
84026;BME280;74110;45.660;25.582;2024-02-26T11:17:38;94710.17;;;15.27;53.72
84026;BME280;74110;45.660;25.582;2024-02-26T11:20:11;94709.31;;;15.31;53.60
84026;BME280;74110;45.660;25.582;2024-02-26T11:22:40;94707.34;;;15.23;53.83
84026;BME280;74110;45.660;25.582;2024-02-26T11:25:07;94702.56;;;15.33;53.81
84026;BME280;74110;45.660;25.582;2024-02-26T11:27:53;94703.95;;;15.36;53.77
84026;BME280;74110;45.660;25.582;2024-02-26T11:30:25;94702.14;;;15.55;53.52
84026;BME280;74110;45.660;25.582;2024-02-26T11:32:55;94701.35;;;15.70;52.98
84026;BME280;74110;45.660;25.582;2024-02-26T11:35:23;94703.64;;;15.78;52.78
84026;BME280;74110;45.660;25.582;2024-02-26T11:37:56;94703.63;;;15.72;52.47
84026;BME280;74110;45.660;25.582;2024-02-26T11:40:25;94703.25;;;15.67;52.63
84026;BME280;74110;45.660;25.582;2024-02-26T11:42:55;94702.11;;;15.62;52.75
84026;BME280;74110;45.660;25.582;2024-02-26T11:46:00;94696.61;;;15.81;52.55
84026;BME280;74110;45.660;25.582;2024-02-26T11:48:28;94695.18;;;16.07;52.63
84026;BME280;74110;45.660;25.582;2024-02-26T11:50:58;94699.53;;;16.26;51.11
84026;BME280;74110;45.660;25.582;2024-02-26T11:53:30;94697.44;;;16.29;50.37
84026;BME280;74110;45.660;25.582;2024-02-26T11:56:34;94698.35;;;16.28;50.98
84026;BME280;74110;45.660;25.582;2024-02-26T11:59:10;94695.26;;;16.44;51.69
84026;BME280;74110;45.660;25.582;2024-02-26T12:06:46;94689.41;;;16.55;50.45
84026;BME280;74110;45.660;25.582;2024-02-26T12:09:31;94688.64;;;16.61;49.54
84026;BME280;74110;45.660;25.582;2024-02-26T12:12:03;94689.16;;;16.57;49.25
84026;BME280;74110;45.660;25.582;2024-02-26T12:14:52;94687.26;;;16.71;50.14
84026;BME280;74110;45.660;25.582;2024-02-26T12:17:25;94686.51;;;16.90;49.73
84026;BME280;74110;45.660;25.582;2024-02-26T12:19:53;94684.58;;;17.06;48.77
84026;BME280;74110;45.660;25.582;2024-02-26T12:22:21;94682.65;;;17.23;48.31
84026;BME280;74110;45.660;25.582;2024-02-26T12:24:58;94683.34;;;17.36;47.26
84026;BME280;74110;45.660;25.582;2024-02-26T12:27:26;94682.53;;;17.51;45.03
84026;BME280;74110;45.660;25.582;2024-02-26T12:29:54;94683.09;;;17.70;43.75
84026;BME280;74110;45.660;25.582;2024-02-26T12:32:21;94680.98;;;17.99;43.76
84026;BME280;74110;45.660;25.582;2024-02-26T12:34:50;94681.23;;;18.24;42.55
84026;BME280;74110;45.660;25.582;2024-02-26T12:37:18;94683.90;;;18.35;42.71
84026;BME280;74110;45.660;25.582;2024-02-26T12:39:46;94685.48;;;18.36;43.53
84026;BME280;74110;45.660;25.582;2024-02-26T12:42:14;94679.74;;;18.19;42.01
84026;BME280;74110;45.660;25.582;2024-02-26T12:44:42;94684.63;;;17.93;43.71
84026;BME280;74110;45.660;25.582;2024-02-26T12:47:11;94681.70;;;17.85;43.06
84026;BME280;74110;45.660;25.582;2024-02-26T12:49:43;94683.10;;;17.86;42.04
84026;BME280;74110;45.660;25.582;2024-02-26T12:52:14;94688.52;;;17.80;42.68
84026;BME280;74110;45.660;25.582;2024-02-26T12:54:44;94685.48;;;17.71;41.92
84026;BME280;74110;45.660;25.582;2024-02-26T12:57:12;94680.80;;;17.52;40.59
84026;BME280;74110;45.660;25.582;2024-02-26T12:59:40;94684.21;;;17.54;42.06
84026;BME280;74110;45.660;25.582;2024-02-26T13:02:09;94688.59;;;17.76;43.00
84026;BME280;74110;45.660;25.582;2024-02-26T13:04:37;94685.20;;;17.98;41.96
84026;BME280;74110;45.660;25.582;2024-02-26T13:07:06;94680.75;;;18.12;42.00
84026;BME280;74110;45.660;25.582;2024-02-26T13:09:35;94683.84;;;18.16;41.23